Huvudsida
METAR-TAF:

METAR-TAF

Flygplatser :

Halli Airport

Jämsä, Finland

latitud: 61-51N, longitud: 024-48E, höjd: 143 m

Aktuellt väderrapport

Denna rapport gjordes för 32 minuter sedan, klockan 12:20 UTC
Vind 12 kt från syd, varierande mellan syd/sydost och väst/sydväst
Temperatur 22°C
Fuktighet 46%
Tryck 1012 hPa
Sikt 10 km eller mer
Få moln på en höjd av 4800 ft

METAR: EFHA 181220Z AUTO 19012KT 160V240 9999 FEW048 22/10 Q1012

Tid: 15:52 (12:52 UTC)

Väderprognos

Denna rapport gjordes för 25 timmar och 19 minuter sedan, klockan 11:33 UTC
Prognos gäller från 17 kl. 12 UTC till 17 kl. 14 UTC
Vind 11 kt från syd
Sikt 10 km eller mer
Brutna moln på en höjd av 2900 ft
Sannolikhet 30%
från 17 kl. 12 UTC till 17 kl. 14 UTC
Få moln på en höjd av 3500 ft, Högtornande cumulus.

TAF: EFHA 171133Z 1712/1714 18011KT 9999 BKN029 PROB30 1712/1714 FEW035TCU

Aktuella väderrapporter och prognoser från 4000 flygplatser (METAR- och TAF-rapporter).

De tillgängliga stationerna syns som gula och röda prickar på kartan.

För musen över prickarna för att se namnen på stationerna.

Klicka sedan för att få väderrapporter och prognoser.

För att ändra kartan: Klicka på de gröna knapparna med ett svart kors på för att zooma in; den gröna knappen med ett streck på för att zooma ut; eller på de gröna pilarna för angränsande kartor.


METAR-TAF: